Time;durP1;ratioP1;P1;durP2;ratioP2;P2;SDS_P1;SDS_P2;PMS_P1;PMS_P2;Temp;Humidity;BMP_temperature;BMP_pressure;BME280_temperature;BME280_humidity;BME280_pressure;Samples;Min_cycle;Max_cycle;Signal;HPM_P1;HPM_P2
2021/03/14 00:00:00;;;;;;;2.30;1.23;;;6.10;79.70;;;;;;5010926;28;20427;-86
2021/03/14 00:02:26;;;;;;;1.70;1.23;;;6.10;78.30;;;;;;5010116;28;20242;-86
2021/03/14 00:04:53;;;;;;;1.23;0.73;;;6.20;76.90;;;;;;5018086;28;20217;-87
2021/03/14 00:07:20;;;;;;;1.40;1.00;;;6.30;75.80;;;;;;5023475;28;20222;-86
2021/03/14 00:09:47;;;;;;;1.70;1.00;;;6.10;77.10;;;;;;5019887;28;20207;-86
2021/03/14 00:12:13;;;;;;;1.07;1.07;;;6.10;76.70;;;;;;5020635;28;20442;-87
2021/03/14 00:14:40;;;;;;;1.73;0.93;;;6.00;77.00;;;;;;5008647;28;20256;-86
2021/03/14 00:17:06;;;;;;;3.10;1.40;;;5.90;79.00;;;;;;5012153;28;20295;-86
2021/03/14 00:19:33;;;;;;;3.40;1.50;;;5.70;84.20;;;;;;5019441;28;20202;-86
2021/03/14 00:21:59;;;;;;;1.83;1.30;;;5.30;89.10;;;;;;5012244;28;21063;-86
2021/03/14 00:24:26;;;;;;;2.00;1.20;;;4.90;91.00;;;;;;5019273;28;20210;-86
2021/03/14 00:26:53;;;;;;;1.20;0.97;;;4.70;92.30;;;;;;5019462;28;20237;-87
2021/03/14 00:29:20;;;;;;;1.17;1.07;;;4.50;93.20;;;;;;5020396;28;20278;-87
2021/03/14 00:31:46;;;;;;;1.73;1.37;;;4.40;94.20;;;;;;5015173;28;20238;-85
2021/03/14 00:34:12;;;;;;;2.90;1.10;;;4.30;94.80;;;;;;5014384;28;20201;-86
2021/03/14 00:36:39;;;;;;;1.30;1.20;;;4.20;94.90;;;;;;5011808;28;20202;-85
2021/03/14 00:39:06;;;;;;;2.47;1.00;;;4.10;95.20;;;;;;5023385;28;20209;-85
2021/03/14 00:41:37;;;;;;;1.63;1.30;;;4.00;95.80;;;;;;5020792;28;20245;-88
2021/03/14 00:44:05;;;;;;;1.03;0.90;;;3.90;96.50;;;;;;5016499;28;20285;-86
2021/03/14 00:46:32;;;;;;;1.20;1.00;;;3.90;96.70;;;;;;5018467;28;20204;-85
2021/03/14 00:48:58;;;;;;;0.80;0.80;;;3.80;96.70;;;;;;5020626;28;20191;-85
2021/03/14 00:51:25;;;;;;;1.63;1.27;;;3.80;96.90;;;;;;5016941;28;20233;-84
2021/03/14 00:53:52;;;;;;;1.23;0.90;;;3.80;97.00;;;;;;5011292;28;20206;-86
2021/03/14 00:56:19;;;;;;;1.00;0.90;;;3.80;96.80;;;;;;5021412;28;20202;-86
2021/03/14 00:58:47;;;;;;;0.80;0.80;;;3.80;97.00;;;;;;5019011;28;20542;-85
2021/03/14 01:01:13;;;;;;;1.17;0.87;;;3.80;96.70;;;;;;5010103;28;20206;-86
2021/03/14 01:03:39;;;;;;;1.10;1.00;;;3.90;96.90;;;;;;5003211;28;20306;-86
2021/03/14 01:06:06;;;;;;;1.00;0.90;;;3.90;96.70;;;;;;5007475;28;20211;-86
2021/03/14 01:08:33;;;;;;;0.83;0.70;;;3.90;96.90;;;;;;5011518;28;20669;-86
2021/03/14 01:11:00;;;;;;;1.20;0.90;;;3.90;96.60;;;;;;5021520;28;20219;-86
2021/03/14 01:13:27;;;;;;;1.20;1.10;;;3.80;96.80;;;;;;5022345;28;20225;-86
2021/03/14 01:15:54;;;;;;;0.73;0.73;;;3.90;96.90;;;;;;5000416;28;20294;-85
2021/03/14 01:18:20;;;;;;;0.90;0.90;;;3.90;96.70;;;;;;5022212;28;20809;-86
2021/03/14 01:20:47;;;;;;;0.83;0.60;;;4.00;96.60;;;;;;5010837;28;20211;-86
2021/03/14 01:23:13;;;;;;;1.00;1.00;;;3.90;96.50;;;;;;5004102;28;20328;-86
2021/03/14 01:25:40;;;;;;;0.70;0.70;;;4.00;96.90;;;;;;5008667;28;20211;-86
2021/03/14 01:28:06;;;;;;;0.70;0.70;;;4.00;96.50;;;;;;5012328;28;20235;-86
2021/03/14 01:30:33;;;;;;;1.17;1.10;;;3.90;96.50;;;;;;5011942;28;20280;-86
2021/03/14 01:33:01;;;;;;;1.17;1.10;;;3.90;96.70;;;;;;5006420;28;20228;-88
2021/03/14 01:35:27;;;;;;;0.83;0.83;;;4.00;96.50;;;;;;5020808;28;20244;-87
2021/03/14 01:37:53;;;;;;;0.70;0.70;;;3.90;96.30;;;;;;5016359;28;20747;-86
2021/03/14 01:40:20;;;;;;;0.80;0.80;;;3.90;96.30;;;;;;5010708;28;20234;-87
2021/03/14 01:42:47;;;;;;;1.03;0.70;;;3.90;96.80;;;;;;5016672;28;20599;-87
2021/03/14 01:45:14;;;;;;;1.73;1.27;;;3.90;97.00;;;;;;5011101;28;20211;-87
2021/03/14 01:47:43;;;;;;;0.80;0.70;;;3.90;96.70;;;;;;5025486;28;20250;-86
2021/03/14 01:50:13;;;;;;;0.70;0.70;;;3.90;96.80;;;;;;5021532;28;20237;-86
2021/03/14 01:52:39;;;;;;;0.67;0.57;;;3.80;96.50;;;;;;5022502;28;20226;-86
2021/03/14 01:55:08;;;;;;;1.07;0.97;;;3.70;96.40;;;;;;5011521;28;20203;-86
2021/03/14 01:57:35;;;;;;;1.00;0.77;;;3.50;96.70;;;;;;5026457;28;20685;-85
2021/03/14 02:00:03;;;;;;;0.70;0.70;;;3.60;97.00;;;;;;5011582;28;20205;-86
2021/03/14 02:02:29;;;;;;;0.60;0.60;;;3.60;96.90;;;;;;5017877;28;20230;-85
2021/03/14 02:04:56;;;;;;;1.10;1.00;;;3.70;97.10;;;;;;5024246;28;20211;-85
2021/03/14 02:07:23;;;;;;;1.00;1.00;;;3.70;97.00;;;;;;5004721;28;20624;-86
2021/03/14 02:09:49;;;;;;;1.60;1.10;;;3.80;97.20;;;;;;5017258;28;20822;-86
2021/03/14 02:12:21;;;;;;;0.90;0.90;;;3.80;96.70;;;;;;5014488;28;20226;-87
2021/03/14 02:14:48;;;;;;;0.87;0.77;;;3.90;96.60;;;;;;5022319;28;20210;-87
2021/03/14 02:17:17;;;;;;;0.90;0.90;;;3.80;96.60;;;;;;5020330;28;20230;-88
2021/03/14 02:19:52;;;;;;;1.10;1.10;;;3.70;96.50;;;;;;5004107;28;20211;-86
2021/03/14 02:22:19;;;;;;;1.40;1.30;;;3.60;97.10;;;;;;5006815;28;20241;-86
2021/03/14 02:24:52;;;;;;;0.80;0.80;;;3.50;97.40;;;;;;5025926;28;20207;-86
2021/03/14 02:27:20;;;;;;;1.07;1.07;;;3.50;97.40;;;;;;5014148;28;20226;-86
2021/03/14 02:29:47;;;;;;;0.60;0.60;;;3.40;97.50;;;;;;5015707;28;20203;-86
2021/03/14 02:32:17;;;;;;;1.07;0.90;;;3.50;97.60;;;;;;5021505;28;20230;-88
2021/03/14 02:34:48;;;;;;;0.60;0.60;;;3.40;97.40;;;;;;5008241;28;20214;-86
2021/03/14 02:37:16;;;;;;;2.83;1.50;;;3.50;97.40;;;;;;4992062;28;20222;-89
2021/03/14 02:39:43;;;;;;;0.67;0.67;;;3.40;97.40;;;;;;5021412;28;20209;-87
2021/03/14 02:42:12;;;;;;;0.70;0.70;;;3.40;97.50;;;;;;5010210;28;20320;-86
2021/03/14 02:44:44;;;;;;;1.47;1.37;;;3.50;97.70;;;;;;4998676;28;20222;-87
2021/03/14 02:47:11;;;;;;;0.87;0.67;;;3.50;97.40;;;;;;5017501;28;20288;-89
2021/03/14 02:49:38;;;;;;;1.27;1.23;;;3.50;97.60;;;;;;5016789;28;20217;-86
2021/03/14 02:52:05;;;;;;;0.70;0.70;;;3.50;97.40;;;;;;5022971;28;20309;-86
2021/03/14 02:54:32;;;;;;;0.90;0.90;;;3.50;97.40;;;;;;5021043;28;20650;-86
2021/03/14 02:57:00;;;;;;;0.90;0.90;;;3.60;96.90;;;;;;5015601;28;20231;-87
2021/03/14 02:59:27;;;;;;;0.80;0.80;;;3.50;96.80;;;;;;5010861;28;20210;-86
2021/03/14 03:01:55;;;;;;;0.60;0.60;;;3.50;96.90;;;;;;4994495;28;20233;-86
2021/03/14 03:04:24;;;;;;;1.87;0.90;;;3.60;96.90;;;;;;5003050;28;20731;-87
2021/03/14 03:06:53;;;;;;;0.97;0.90;;;3.60;96.60;;;;;;5006814;28;20700;-86
2021/03/14 03:09:20;;;;;;;1.53;0.90;;;3.70;96.40;;;;;;5023603;28;20699;-85
2021/03/14 03:11:50;;;;;;;2.30;0.60;;;3.70;96.30;;;;;;5005015;28;20245;-86
2021/03/14 03:14:18;;;;;;;1.20;0.90;;;3.70;96.30;;;;;;5022439;28;20221;-86
2021/03/14 03:16:49;;;;;;;1.00;1.00;;;3.80;96.00;;;;;;5006815;28;21749;-86
2021/03/14 03:19:17;;;;;;;1.20;1.10;;;3.80;95.50;;;;;;5002041;28;20543;-86
2021/03/14 03:21:45;;;;;;;0.60;0.60;;;3.90;95.50;;;;;;5026338;28;20233;-87
2021/03/14 03:24:12;;;;;;;1.47;0.70;;;3.90;95.50;;;;;;5021718;28;20668;-87
2021/03/14 03:26:39;;;;;;;0.80;0.80;;;4.00;95.60;;;;;;5019023;28;20210;-87
2021/03/14 03:29:05;;;;;;;0.80;0.80;;;3.90;95.50;;;;;;5011023;28;20617;-89
2021/03/14 03:31:31;;;;;;;1.20;1.10;;;3.90;95.90;;;;;;5020239;28;20301;-88
2021/03/14 03:33:58;;;;;;;0.90;0.90;;;3.90;95.80;;;;;;5003497;28;20884;-87
2021/03/14 03:36:25;;;;;;;2.13;0.83;;;3.90;96.10;;;;;;5002285;28;20210;-89
2021/03/14 03:38:54;;;;;;;0.70;0.70;;;3.90;96.20;;;;;;5015027;28;20249;-87
2021/03/14 03:41:22;;;;;;;1.37;0.90;;;4.00;96.00;;;;;;5001414;28;20210;-88
2021/03/14 03:43:49;;;;;;;1.17;0.70;;;4.00;95.50;;;;;;4994182;28;20235;-87
2021/03/14 03:46:16;;;;;;;0.80;0.80;;;3.80;95.60;;;;;;5006925;28;20567;-86
2021/03/14 03:48:46;;;;;;;0.90;0.90;;;3.80;96.10;;;;;;5016292;28;20219;-86
2021/03/14 03:51:14;;;;;;;0.80;0.73;;;3.80;96.20;;;;;;5000619;28;20215;-87
2021/03/14 03:53:43;;;;;;;0.50;0.50;;;3.80;96.30;;;;;;5018337;28;20222;-87
2021/03/14 03:56:10;;;;;;;1.17;0.90;;;3.80;96.30;;;;;;5025159;28;20562;-87
2021/03/14 03:58:37;;;;;;;0.80;0.80;;;3.80;95.90;;;;;;5022470;28;20599;-87
2021/03/14 04:01:04;;;;;;;0.70;0.70;;;3.80;96.00;;;;;;5023705;28;20209;-87
2021/03/14 04:03:35;;;;;;;0.70;0.70;;;3.80;96.30;;;;;;5024465;28;20226;-86
2021/03/14 04:06:02;;;;;;;0.80;0.80;;;3.80;96.20;;;;;;5024426;28;20201;-88
2021/03/14 04:08:30;;;;;;;1.00;1.00;;;3.80;95.90;;;;;;5023541;28;20226;-87
2021/03/14 04:10:58;;;;;;;0.63;0.63;;;3.80;95.60;;;;;;5017445;28;20218;-86
2021/03/14 04:13:26;;;;;;;1.43;1.33;;;3.80;96.00;;;;;;5021540;28;20221;-87
2021/03/14 04:15:52;;;;;;;0.70;0.70;;;3.80;95.80;;;;;;5021848;28;20206;-86
2021/03/14 04:18:20;;;;;;;0.70;0.70;;;3.80;96.00;;;;;;5014583;28;20586;-87
2021/03/14 04:20:50;;;;;;;0.60;0.60;;;3.80;96.00;;;;;;5026492;28;20253;-86
2021/03/14 04:23:20;;;;;;;1.30;1.20;;;3.70;96.00;;;;;;5018630;28;20230;-87
2021/03/14 04:25:50;;;;;;;0.70;0.70;;;3.70;96.10;;;;;;5022594;28;20203;-87
2021/03/14 04:28:20;;;;;;;0.70;0.70;;;3.70;95.50;;;;;;5020257;28;20222;-85
2021/03/14 04:30:46;;;;;;;0.70;0.70;;;3.80;95.70;;;;;;5027994;28;20234;-87
2021/03/14 04:33:13;;;;;;;1.00;0.90;;;3.80;95.80;;;;;;5019503;28;20578;-86
2021/03/14 04:35:40;;;;;;;0.60;0.60;;;3.70;95.80;;;;;;5008593;28;20756;-87
2021/03/14 04:38:07;;;;;;;0.83;0.83;;;3.70;95.80;;;;;;5016368;28;20234;-88
2021/03/14 04:40:35;;;;;;;0.60;0.60;;;3.80;95.10;;;;;;5005593;28;20205;-88
2021/03/14 04:43:03;;;;;;;1.17;1.17;;;3.80;95.40;;;;;;5006697;28;20288;-87
2021/03/14 04:45:32;;;;;;;1.70;0.60;;;3.80;95.30;;;;;;5020816;28;20198;-86
2021/03/14 04:47:58;;;;;;;0.70;0.70;;;3.90;95.20;;;;;;5022819;28;20221;-86
2021/03/14 04:50:28;;;;;;;1.00;0.90;;;3.80;95.30;;;;;;5020105;28;20233;-87
2021/03/14 04:53:00;;;;;;;0.60;0.60;;;3.80;95.50;;;;;;4997658;28;20579;-87
2021/03/14 04:55:31;;;;;;;0.80;0.80;;;3.70;95.70;;;;;;5017059;28;20936;-86
2021/03/14 04:58:00;;;;;;;0.90;0.90;;;3.60;95.80;;;;;;5015078;28;20226;-87
2021/03/14 05:00:28;;;;;;;0.70;0.70;;;3.60;95.90;;;;;;5013120;28;20615;-87
2021/03/14 05:02:59;;;;;;;0.93;0.93;;;3.40;96.50;;;;;;5014125;28;20225;-86
2021/03/14 05:05:26;;;;;;;1.13;0.90;;;3.10;95.90;;;;;;5020732;28;20549;-86
2021/03/14 05:07:53;;;;;;;0.87;0.87;;;2.90;96.80;;;;;;5013312;28;20577;-86
2021/03/14 05:10:22;;;;;;;0.93;0.93;;;2.60;97.20;;;;;;5001989;28;20208;-86
2021/03/14 05:12:50;;;;;;;0.60;0.60;;;2.30;97.60;;;;;;5013526;28;20229;-86
2021/03/14 05:15:17;;;;;;;0.80;0.80;;;2.20;98.40;;;;;;4981083;28;20620;-86
2021/03/14 05:17:46;;;;;;;0.93;0.90;;;2.10;98.80;;;;;;5013414;28;20705;-85
2021/03/14 05:20:16;;;;;;;0.97;0.80;;;2.10;99.40;;;;;;5019343;28;20257;-86
2021/03/14 05:22:44;;;;;;;0.83;0.83;;;2.10;99.60;;;;;;5008476;28;20226;-86
2021/03/14 05:25:13;;;;;;;0.87;0.87;;;2.10;99.60;;;;;;5014205;28;20204;-86
2021/03/14 05:27:48;;;;;;;0.80;0.80;;;2.20;99.60;;;;;;5024815;28;20328;-86
2021/03/14 05:30:17;;;;;;;0.97;0.80;;;2.20;99.70;;;;;;5005642;28;20210;-86
2021/03/14 05:32:44;;;;;;;0.87;0.87;;;2.10;99.60;;;;;;4996784;28;20686;-85
2021/03/14 05:35:12;;;;;;;1.43;0.90;;;2.10;99.60;;;;;;4995578;28;20200;-85
2021/03/14 05:37:39;;;;;;;0.80;0.80;;;2.10;99.60;;;;;;5015513;28;20720;-85
2021/03/14 05:40:06;;;;;;;1.03;0.80;;;2.10;99.90;;;;;;5005019;28;20212;-86
2021/03/14 05:42:33;;;;;;;0.90;0.90;;;2.10;99.90;;;;;;5019882;28;20256;-86
2021/03/14 05:45:00;;;;;;;0.83;0.83;;;2.20;99.90;;;;;;5024007;28;20202;-86
2021/03/14 05:47:26;;;;;;;0.87;0.87;;;2.30;99.90;;;;;;5022905;28;20560;-86
2021/03/14 05:49:53;;;;;;;0.80;0.80;;;2.20;99.90;;;;;;5025096;28;20204;-85
2021/03/14 05:52:20;;;;;;;0.80;0.80;;;2.30;99.90;;;;;;5025027;28;20248;-85
2021/03/14 05:54:50;;;;;;;1.00;1.00;;;2.20;99.90;;;;;;5025103;28;20204;-86
2021/03/14 05:57:18;;;;;;;1.10;1.00;;;2.30;99.90;;;;;;5022335;28;20238;-86
2021/03/14 05:59:45;;;;;;;0.97;0.97;;;2.30;99.80;;;;;;5026737;28;20200;-85
2021/03/14 06:02:12;;;;;;;1.10;1.00;;;2.30;99.70;;;;;;5015837;28;20599;-86
2021/03/14 06:04:39;;;;;;;0.97;0.93;;;2.20;99.80;;;;;;5025993;28;20643;-85
2021/03/14 06:07:05;;;;;;;0.90;0.90;;;2.20;99.90;;;;;;5024590;28;20239;-86
2021/03/14 06:09:32;;;;;;;1.87;1.10;;;2.30;99.90;;;;;;5022678;28;20205;-86
2021/03/14 06:11:59;;;;;;;1.23;1.23;;;2.30;99.90;;;;;;5025258;28;20619;-85
2021/03/14 06:14:26;;;;;;;1.17;1.10;;;2.30;99.70;;;;;;5022092;28;20694;-86
2021/03/14 06:16:53;;;;;;;1.00;1.00;;;2.40;99.90;;;;;;5023187;28;20235;-85
2021/03/14 06:19:20;;;;;;;2.50;1.10;;;2.30;99.90;;;;;;5025792;28;20609;-85
2021/03/14 06:21:46;;;;;;;1.83;1.07;;;2.40;99.90;;;;;;5023226;28;20236;-86
2021/03/14 06:24:13;;;;;;;1.30;1.20;;;2.40;99.70;;;;;;5028455;28;20209;-86
2021/03/14 06:26:41;;;;;;;1.40;1.10;;;2.40;99.90;;;;;;5023942;28;20655;-86
2021/03/14 06:29:26;;;;;;;2.10;1.13;;;2.40;99.90;;;;;;5028266;28;20202;-86
2021/03/14 06:31:55;;;;;;;1.10;1.00;;;2.60;99.70;;;;;;5023585;28;20278;-86
2021/03/14 06:34:26;;;;;;;1.43;1.00;;;2.60;99.70;;;;;;5019719;28;20209;-86
2021/03/14 06:36:53;;;;;;;1.10;0.90;;;2.60;99.70;;;;;;4998694;28;20755;-86
2021/03/14 06:39:24;;;;;;;1.50;1.20;;;2.80;99.70;;;;;;4997494;28;20207;-87
2021/03/14 06:41:50;;;;;;;0.90;0.90;;;2.90;99.10;;;;;;5004969;28;20233;-88
2021/03/14 06:44:27;;;;;;;1.30;1.20;;;2.90;99.20;;;;;;5023559;28;20198;-87
2021/03/14 06:46:53;;;;;;;1.37;1.10;;;2.90;99.30;;;;;;5003744;28;20403;-86
2021/03/14 06:49:21;;;;;;;1.23;1.13;;;2.90;99.10;;;;;;4993787;28;20205;-87
2021/03/14 06:51:49;;;;;;;0.90;0.90;;;3.00;98.80;;;;;;5012882;28;20245;-87
2021/03/14 06:54:21;;;;;;;0.93;0.93;;;3.00;99.00;;;;;;5015810;28;20734;-87
2021/03/14 06:56:58;;;;;;;2.17;1.10;;;3.00;98.60;;;;;;5026606;28;20234;-87
2021/03/14 06:59:26;;;;;;;0.90;0.90;;;3.00;98.60;;;;;;5017714;28;20209;-86
2021/03/14 07:02:01;;;;;;;0.80;0.80;;;3.00;98.90;;;;;;5004854;28;20225;-86
2021/03/14 07:04:51;;;;;;;1.10;1.10;;;3.10;98.50;;;;;;5021428;28;20213;-86
2021/03/14 07:07:24;;;;;;;1.10;1.10;;;3.10;98.00;;;;;;5002480;28;20239;-85
2021/03/14 07:10:00;;;;;;;0.97;0.97;;;3.00;98.40;;;;;;5021558;28;20338;-86
2021/03/14 07:12:31;;;;;;;1.00;1.00;;;3.00;98.40;;;;;;5012327;28;20244;-85
2021/03/14 07:15:11;;;;;;;1.07;0.97;;;3.00;98.50;;;;;;5021765;28;20205;-87
2021/03/14 07:17:39;;;;;;;1.00;0.87;;;2.90;98.20;;;;;;5005685;28;20237;-85
2021/03/14 07:20:12;;;;;;;1.27;1.17;;;2.90;98.30;;;;;;5025683;28;20231;-86
2021/03/14 07:22:39;;;;;;;1.00;1.00;;;2.90;98.70;;;;;;5013065;28;20247;-86
2021/03/14 07:25:07;;;;;;;1.33;1.20;;;2.90;98.30;;;;;;5001445;28;20648;-85
2021/03/14 07:27:34;;;;;;;1.20;1.10;;;2.80;98.80;;;;;;5001718;28;20227;-85
2021/03/14 07:30:04;;;;;;;0.80;0.80;;;2.80;99.00;;;;;;5026096;28;20296;-86
2021/03/14 07:32:30;;;;;;;0.90;0.90;;;2.80;98.90;;;;;;5014666;28;20315;-86
2021/03/14 07:34:57;;;;;;;0.80;0.80;;;2.70;98.90;;;;;;5008628;28;20213;-86
2021/03/14 07:37:23;;;;;;;1.37;1.30;;;2.70;98.70;;;;;;5006834;28;20725;-87
2021/03/14 07:39:50;;;;;;;1.10;1.10;;;2.70;99.00;;;;;;5004047;28;20203;-86
2021/03/14 07:42:21;;;;;;;2.07;1.00;;;2.70;99.10;;;;;;5010035;28;20233;-86
2021/03/14 07:44:48;;;;;;;0.90;0.90;;;2.70;98.40;;;;;;4993182;28;20651;-85
2021/03/14 07:47:18;;;;;;;1.00;1.00;;;2.60;98.50;;;;;;5017638;28;20226;-86
2021/03/14 07:49:49;;;;;;;0.80;0.80;;;2.70;98.40;;;;;;5015192;28;20319;-88
2021/03/14 07:52:21;;;;;;;1.17;1.10;;;2.70;98.60;;;;;;5003483;28;20244;-87
2021/03/14 07:54:52;;;;;;;0.70;0.70;;;2.70;98.40;;;;;;5025033;28;20247;-87
2021/03/14 07:57:23;;;;;;;1.00;1.00;;;2.70;98.20;;;;;;5002502;28;20233;-88
2021/03/14 07:59:50;;;;;;;0.80;0.80;;;2.70;98.80;;;;;;5002549;28;20857;-86
2021/03/14 08:02:31;;;;;;;0.93;0.93;;;2.40;98.70;;;;;;4997203;28;20241;-86
2021/03/14 08:05:00;;;;;;;0.70;0.70;;;2.30;98.90;;;;;;5022742;28;20204;-86
2021/03/14 08:07:47;;;;;;;1.07;1.00;;;2.10;99.10;;;;;;4999947;28;20230;-87
2021/03/14 08:10:37;;;;;;;0.77;0.77;;;2.00;99.60;;;;;;5026496;28;20625;-86
2021/03/14 08:13:05;;;;;;;2.13;1.30;;;2.10;99.90;;;;;;5009940;28;20326;-86
2021/03/14 08:15:34;;;;;;;1.63;1.00;;;2.20;99.90;;;;;;5021535;28;20304;-86
2021/03/14 08:18:04;;;;;;;1.17;1.10;;;2.20;99.90;;;;;;5009364;28;20280;-86
2021/03/14 08:20:43;;;;;;;1.20;1.10;;;2.20;99.70;;;;;;5021366;28;20210;-86
2021/03/14 08:23:12;;;;;;;3.27;1.20;;;2.30;99.70;;;;;;5026464;28;20764;-87
2021/03/14 08:25:41;;;;;;;0.83;0.80;;;2.40;99.70;;;;;;5021963;28;20206;-85
2021/03/14 08:28:33;;;;;;;1.37;1.00;;;2.50;99.70;;;;;;5027069;28;20364;-87
2021/03/14 08:31:01;;;;;;;1.07;0.97;;;2.70;99.80;;;;;;5024014;28;20238;-85
2021/03/14 08:33:43;;;;;;;1.90;1.20;;;2.90;99.50;;;;;;5017255;28;20264;-86
2021/03/14 08:36:13;;;;;;;1.83;1.30;;;3.10;99.40;;;;;;5025105;28;20205;-86
2021/03/14 08:42:03;;;;;;;3.10;0.80;;;3.60;97.10;;;;;;5033799;28;20288;-84
2021/03/14 08:44:38;;;;;;;1.83;0.93;;;3.40;96.90;;;;;;5034773;28;20294;-86
2021/03/14 08:47:09;;;;;;;1.70;0.80;;;3.30;97.50;;;;;;5034045;28;20218;-86
2021/03/14 08:52:58;;;;;;;1.67;0.80;;;3.40;98.40;;;;;;5034342;28;20751;-84
2021/03/14 08:59:04;;;;;;;1.47;1.00;;;3.40;96.90;;;;;;5038328;28;20228;-85
2021/03/14 09:04:54;;;;;;;2.00;1.13;;;3.40;97.80;;;;;;5038694;28;20226;-86
2021/03/14 09:07:21;;;;;;;2.80;1.07;;;3.50;97.20;;;;;;5038187;28;20254;-87
2021/03/14 09:09:48;;;;;;;2.60;1.20;;;3.50;97.10;;;;;;5039297;28;20206;-87
2021/03/14 09:15:36;;;;;;;3.10;1.20;;;3.60;96.80;;;;;;5038531;28;20217;-87
2021/03/14 09:21:25;;;;;;;2.87;1.27;;;4.10;94.20;;;;;;5039146;28;20242;-86
2021/03/14 09:23:51;;;;;;;5.10;1.23;;;4.20;94.10;;;;;;5038064;28;20317;-88
2021/03/14 09:26:29;;;;;;;2.20;1.30;;;4.50;93.10;;;;;;5039510;28;20257;-87
2021/03/14 09:28:55;;;;;;;1.70;1.23;;;4.60;93.30;;;;;;5038839;28;20289;-88
2021/03/14 09:31:24;;;;;;;3.10;1.00;;;4.80;91.90;;;;;;5038916;28;20227;-88
2021/03/14 09:37:26;;;;;;;2.23;1.10;;;5.00;91.80;;;;;;5037421;28;20225;-87
2021/03/14 09:43:18;;;;;;;1.77;1.10;;;5.80;91.30;;;;;;5038553;28;20360;-90
2021/03/14 09:46:25;;;;;;;3.83;1.10;;;6.50;85.10;;;;;;5038296;28;20202;-91
2021/03/14 09:48:51;;;;;;;2.80;1.20;;;6.80;81.60;;;;;;5038481;28;20657;-89
2021/03/14 09:51:18;;;;;;;1.77;1.00;;;7.30;81.60;;;;;;5040637;28;20609;-88
2021/03/14 09:53:44;;;;;;;1.67;1.00;;;7.60;78.00;;;;;;5037415;28;20237;-89
2021/03/14 09:56:13;;;;;;;2.00;1.20;;;7.40;76.00;;;;;;5038263;28;20206;-89
2021/03/14 09:58:41;;;;;;;1.63;0.90;;;7.30;76.00;;;;;;5039923;28;20660;-90
2021/03/14 10:01:11;;;;;;;2.37;1.30;;;7.40;73.50;;;;;;5029926;28;20653;-91
2021/03/14 10:03:40;;;;;;;1.90;1.53;;;7.40;76.00;;;;;;5013837;28;20225;-91
2021/03/14 10:06:12;;;;;;;2.28;1.35;;;7.40;77.50;;;;;;5023934;28;20209;-91
2021/03/14 10:08:40;;;;;;;1.92;1.10;;;7.80;75.80;;;;;;5019023;28;20222;-92
2021/03/14 10:11:11;;;;;;;1.77;1.40;;;7.70;72.60;;;;;;5029816;28;20680;-91
2021/03/14 10:16:25;;;;;;;1.83;1.30;;;6.80;76.30;;;;;;5026824;28;20198;-91
2021/03/14 10:18:58;;;;;;;2.33;1.00;;;6.40;79.30;;;;;;5031439;28;20264;-90
2021/03/14 10:21:26;;;;;;;2.87;1.50;;;5.80;79.80;;;;;;4999587;28;20202;-87
2021/03/14 10:24:18;;;;;;;2.40;1.20;;;5.40;82.80;;;;;;5024841;28;20277;-86
2021/03/14 10:26:58;;;;;;;1.67;1.20;;;4.90;84.70;;;;;;5026147;28;20281;-87
2021/03/14 10:29:33;;;;;;;1.17;1.07;;;5.00;86.10;;;;;;5028854;28;20299;-86
2021/03/14 10:32:01;;;;;;;1.90;1.20;;;4.90;88.90;;;;;;5021909;28;20241;-85
2021/03/14 10:34:27;;;;;;;3.67;1.40;;;5.00;87.70;;;;;;5015205;28;20554;-87
2021/03/14 10:36:55;;;;;;;1.93;1.00;;;5.00;89.00;;;;;;5027841;28;20226;-89
2021/03/14 10:39:26;;;;;;;1.40;1.30;;;5.20;86.80;;;;;;5010199;28;20237;-88
2021/03/14 10:41:57;;;;;;;1.80;1.20;;;5.60;88.10;;;;;;5004505;28;20490;-88
2021/03/14 10:44:32;;;;;;;2.60;1.53;;;5.80;82.40;;;;;;5010082;28;20313;-89
2021/03/14 10:46:59;;;;;;;2.87;1.60;;;6.20;83.50;;;;;;5010202;28;20319;-90
2021/03/14 10:49:32;;;;;;;2.37;1.33;;;6.50;78.40;;;;;;5012119;28;20313;-89
2021/03/14 10:52:01;;;;;;;2.20;1.60;;;6.50;78.30;;;;;;5010630;28;20230;-89
2021/03/14 10:54:33;;;;;;;2.60;1.30;;;6.60;79.40;;;;;;5021777;28;20199;-89
2021/03/14 10:56:59;;;;;;;2.07;1.40;;;7.20;75.10;;;;;;5007108;28;20225;-90
2021/03/14 10:59:28;;;;;;;2.27;1.40;;;7.60;72.40;;;;;;5009031;28;20206;-90
2021/03/14 11:02:13;;;;;;;1.63;1.53;;;7.60;72.40;;;;;;5007978;28;20229;-89
2021/03/14 11:04:40;;;;;;;1.13;1.00;;;7.00;71.90;;;;;;5001392;28;20688;-91
2021/03/14 11:07:24;;;;;;;1.37;1.00;;;6.90;73.60;;;;;;5019365;28;20258;-89
2021/03/14 11:10:06;;;;;;;2.07;1.40;;;6.40;74.30;;;;;;5023532;28;20543;-93
2021/03/14 11:12:34;;;;;;;1.60;1.47;;;6.00;77.80;;;;;;5018160;28;20226;-88
2021/03/14 11:15:00;;;;;;;2.00;1.37;;;5.40;81.70;;;;;;5017202;28;20728;-89
2021/03/14 11:17:30;;;;;;;2.33;1.70;;;4.90;84.10;;;;;;5013753;28;20313;-88
2021/03/14 11:19:57;;;;;;;2.47;1.50;;;4.80;86.70;;;;;;5017605;28;20213;-85
2021/03/14 11:22:24;;;;;;;1.60;1.50;;;4.90;88.90;;;;;;5021086;28;20459;-88
2021/03/14 11:24:52;;;;;;;2.93;1.40;;;5.00;89.00;;;;;;5013857;28;20199;-90
2021/03/14 11:27:19;;;;;;;2.03;1.00;;;5.50;89.30;;;;;;5032187;28;20260;-88
2021/03/14 11:29:45;;;;;;;1.47;0.80;;;5.90;85.10;;;;;;5035672;28;20198;-90
2021/03/14 11:35:35;;;;;;;2.33;1.10;;;6.80;79.60;;;;;;5036261;28;20220;-90
2021/03/14 11:38:02;;;;;;;3.57;1.27;;;7.10;78.30;;;;;;5035786;28;20606;-89
2021/03/14 11:40:28;;;;;;;1.43;1.07;;;7.00;74.20;;;;;;5035776;28;20295;-89
2021/03/14 11:42:55;;;;;;;1.73;1.10;;;7.10;73.80;;;;;;5035294;28;20660;-89
2021/03/14 11:48:44;;;;;;;1.33;1.10;;;6.80;71.60;;;;;;5034653;28;20294;-89
2021/03/14 11:51:12;;;;;;;2.13;1.10;;;6.70;73.50;;;;;;5035159;28;20669;-89
2021/03/14 11:57:01;;;;;;;1.27;0.63;;;6.10;74.60;;;;;;5036213;28;20248;-89
2021/03/14 12:02:50;;;;;;;1.00;0.90;;;5.30;81.00;;;;;;5033921;28;20300;-87
2021/03/14 12:05:19;;;;;;;2.03;1.00;;;4.60;88.00;;;;;;5036017;28;20210;-88
2021/03/14 12:07:46;;;;;;;3.87;1.20;;;4.40;90.10;;;;;;5034452;28;20234;-89
2021/03/14 12:13:36;;;;;;;1.80;1.10;;;4.80;90.80;;;;;;5035992;28;20644;-87
2021/03/14 12:16:03;;;;;;;2.33;1.43;;;5.30;90.20;;;;;;5036856;28;20598;-87
2021/03/14 12:18:31;;;;;;;1.90;1.30;;;5.50;89.30;;;;;;5034978;28;20223;-87
2021/03/14 12:20:59;;;;;;;1.40;1.30;;;5.60;86.40;;;;;;5035286;28;20569;-88
2021/03/14 12:23:26;;;;;;;2.90;1.33;;;5.70;87.90;;;;;;5034392;28;20230;-87
2021/03/14 12:25:53;;;;;;;2.17;1.30;;;5.60;86.60;;;;;;5037779;28;20210;-86
2021/03/14 12:28:19;;;;;;;1.33;1.20;;;5.90;87.00;;;;;;5036366;28;20253;-86
2021/03/14 12:31:26;;;;;;;2.67;1.10;;;5.60;83.70;;;;;;5037050;28;20202;-87
2021/03/14 12:33:53;;;;;;;0.87;0.87;;;5.20;89.10;;;;;;5036350;28;20218;-88
2021/03/14 12:36:26;;;;;;;3.03;1.07;;;4.90;88.30;;;;;;5036718;28;20194;-86
2021/03/14 12:38:54;;;;;;;1.13;0.90;;;4.70;85.80;;;;;;5036929;28;20225;-86
2021/03/14 12:41:26;;;;;;;1.77;1.20;;;4.80;88.90;;;;;;5036420;28;20252;-87
2021/03/14 12:43:53;;;;;;;2.10;1.60;;;4.80;88.90;;;;;;5023402;28;20325;-91
2021/03/14 12:46:19;;;;;;;1.90;1.63;;;4.90;90.20;;;;;;5017241;28;20213;-91
2021/03/14 12:48:47;;;;;;;2.13;1.23;;;5.30;89.10;;;;;;5020936;28;20710;-88
2021/03/14 12:51:13;;;;;;;2.93;1.40;;;5.70;88.20;;;;;;5015945;28;20677;-92
2021/03/14 12:53:40;;;;;;;2.33;1.60;;;6.00;85.00;;;;;;5023628;28;20792;-91
2021/03/14 12:56:07;;;;;;;1.90;1.43;;;6.10;83.60;;;;;;5025950;28;20739;-90
2021/03/14 12:58:34;;;;;;;2.40;1.53;;;6.10;82.40;;;;;;5024529;28;20610;-89
2021/03/14 13:01:00;;;;;;;1.80;1.20;;;6.30;81.10;;;;;;5021375;28;20241;-91
2021/03/14 13:03:27;;;;;;;2.67;1.83;;;6.50;81.20;;;;;;5024288;28;20292;-91
2021/03/14 13:05:53;;;;;;;1.90;1.40;;;6.60;79.80;;;;;;5028363;28;20573;-91
2021/03/14 13:08:23;;;;;;;4.40;2.80;;;6.80;79.40;;;;;;5023299;28;20230;-91
2021/03/14 13:10:49;;;;;;;1.77;1.50;;;6.80;79.10;;;;;;5028116;28;20209;-89
2021/03/14 13:13:17;;;;;;;19.90;12.07;;;7.00;78.20;;;;;;5025936;28;20313;-90
2021/03/14 13:15:43;;;;;;;3.50;2.37;;;7.10;78.30;;;;;;5026136;28;20207;-90
2021/03/14 13:18:10;;;;;;;12.00;6.93;;;7.70;72.70;;;;;;5025120;28;20219;-90
2021/03/14 13:20:37;;;;;;;3.77;3.00;;;7.90;75.70;;;;;;5023363;28;20210;-89
2021/03/14 13:23:07;;;;;;;13.10;7.23;;;8.00;72.90;;;;;;5020577;28;20234;-90
2021/03/14 13:25:33;;;;;;;3.60;3.10;;;8.20;73.20;;;;;;5025779;28;20214;-91
2021/03/14 13:28:01;;;;;;;1.50;1.40;;;8.40;66.70;;;;;;5014235;28;20243;-93
2021/03/14 13:30:28;;;;;;;1.80;1.70;;;7.90;63.60;;;;;;5018200;28;20283;-90
2021/03/14 13:32:56;;;;;;;2.53;1.70;;;7.50;67.50;;;;;;5016267;28;20230;-89
2021/03/14 13:35:23;;;;;;;1.87;1.07;;;7.40;72.30;;;;;;5032515;28;20210;-88
2021/03/14 13:37:50;;;;;;;2.13;1.93;;;6.80;67.50;;;;;;5030227;28;20565;-89
2021/03/14 13:43:38;;;;;;;1.50;1.10;;;6.40;67.50;;;;;;5038072;28;20297;-88
2021/03/14 13:46:06;;;;;;;2.10;1.47;;;6.90;65.50;;;;;;5024964;28;20250;-88
2021/03/14 13:48:32;;;;;;;3.90;1.63;;;7.10;64.70;;;;;;5020682;28;20238;-89
2021/03/14 13:51:00;;;;;;;1.40;1.30;;;7.40;60.90;;;;;;5017818;28;20194;-89
2021/03/14 13:53:31;;;;;;;3.10;2.10;;;7.60;65.60;;;;;;5026629;28;20238;-91
2021/03/14 13:59:19;;;;;;;1.20;0.90;;;7.80;61.20;;;;;;4937678;28;20208;-91